Time;durP1;ratioP1;P1;durP2;ratioP2;P2;SDS_P1;SDS_P2;PMS_P1;PMS_P2;Temp;Humidity;BMP_temperature;BMP_pressure;BME280_temperature;BME280_humidity;BME280_pressure;Samples;Min_cycle;Max_cycle;Signal;HPM_P1;HPM_P2
2020/12/28 00:01:53;;;;;;;1.97;0.87;;;4.40;99.90;;;;;;5016076;28;20658;-78
2020/12/28 00:04:18;;;;;;;1.60;0.90;;;4.40;99.90;;;;;;4997013;28;20542;-77
2020/12/28 00:06:47;;;;;;;0.70;0.70;;;4.50;99.90;;;;;;4999903;28;20242;-80
2020/12/28 00:09:13;;;;;;;1.00;0.90;;;4.40;99.90;;;;;;4983839;28;20175;-79
2020/12/28 00:11:38;;;;;;;0.80;0.70;;;4.40;99.90;;;;;;4998769;28;20304;-80
2020/12/28 00:14:04;;;;;;;1.17;0.90;;;4.40;99.90;;;;;;4981967;28;20219;-78
2020/12/28 00:16:29;;;;;;;1.53;1.03;;;4.40;99.90;;;;;;4998987;28;20206;-78
2020/12/28 00:18:55;;;;;;;1.37;0.90;;;4.40;99.90;;;;;;4996727;28;20266;-77
2020/12/28 00:21:20;;;;;;;1.10;1.00;;;4.30;99.90;;;;;;4981414;28;20239;-79
2020/12/28 00:23:46;;;;;;;1.70;0.90;;;4.40;99.90;;;;;;4998643;28;20674;-80
2020/12/28 00:26:11;;;;;;;0.80;0.80;;;4.40;99.90;;;;;;5001523;28;20640;-78
2020/12/28 00:28:37;;;;;;;0.90;0.90;;;4.40;99.90;;;;;;4995390;28;20713;-78
2020/12/28 00:31:02;;;;;;;1.10;0.90;;;4.40;99.90;;;;;;4996422;28;20708;-78
2020/12/28 00:33:28;;;;;;;1.10;1.00;;;4.40;99.90;;;;;;5018064;28;20173;-78
2020/12/28 00:35:53;;;;;;;1.13;1.03;;;4.30;99.90;;;;;;5003131;28;20191;-79
2020/12/28 00:38:19;;;;;;;1.30;1.20;;;4.30;99.90;;;;;;5004111;28;20183;-81
2020/12/28 00:40:44;;;;;;;2.90;1.00;;;4.30;99.90;;;;;;5018561;28;20730;-80
2020/12/28 00:43:10;;;;;;;1.20;1.00;;;4.30;99.90;;;;;;5005542;28;20202;-78
2020/12/28 00:45:35;;;;;;;1.23;1.00;;;4.30;99.90;;;;;;4990463;28;20203;-79
2020/12/28 00:48:01;;;;;;;1.13;1.03;;;4.30;99.90;;;;;;5006931;28;20175;-80
2020/12/28 00:50:26;;;;;;;1.63;1.10;;;4.30;99.90;;;;;;5006248;28;20201;-79
2020/12/28 00:52:52;;;;;;;2.50;1.20;;;4.30;99.90;;;;;;5007061;28;20175;-80
2020/12/28 00:55:17;;;;;;;2.23;1.10;;;4.30;99.90;;;;;;5023202;28;20581;-80
2020/12/28 00:57:43;;;;;;;1.17;1.07;;;4.30;99.90;;;;;;5033441;23;20242;-79
2020/12/28 01:00:08;;;;;;;1.10;1.00;;;4.20;99.90;;;;;;5013057;28;20203;-81
2020/12/28 01:02:34;;;;;;;2.73;1.20;;;4.20;99.90;;;;;;5015577;28;20171;-80
2020/12/28 01:05:00;;;;;;;1.37;1.10;;;4.30;99.90;;;;;;5018044;28;20172;-78
2020/12/28 01:07:25;;;;;;;1.53;1.10;;;4.20;99.90;;;;;;4997252;28;20209;-81
2020/12/28 01:09:51;;;;;;;1.40;1.10;;;4.20;99.90;;;;;;5012681;28;20236;-79
2020/12/28 01:12:16;;;;;;;0.90;0.90;;;4.30;99.90;;;;;;4998487;28;20176;-79
2020/12/28 01:14:42;;;;;;;2.13;1.17;;;4.20;99.90;;;;;;4996757;28;20215;-81
2020/12/28 01:17:07;;;;;;;1.47;1.10;;;4.30;99.90;;;;;;4997352;28;20208;-80
2020/12/28 01:19:33;;;;;;;1.57;1.17;;;4.20;99.90;;;;;;5013840;28;20249;-82
2020/12/28 01:21:59;;;;;;;1.40;1.20;;;4.20;99.90;;;;;;5014246;28;20175;-80
2020/12/28 01:24:24;;;;;;;3.00;1.13;;;4.20;99.90;;;;;;5013790;28;20684;-79
2020/12/28 01:26:50;;;;;;;1.20;1.10;;;4.20;99.90;;;;;;5013728;28;20196;-80
2020/12/28 01:29:15;;;;;;;1.53;1.00;;;4.20;99.90;;;;;;5014562;28;20183;-81
2020/12/28 01:31:41;;;;;;;1.20;1.00;;;4.30;99.90;;;;;;5015289;28;20761;-82
2020/12/28 01:34:06;;;;;;;0.97;0.87;;;4.20;99.90;;;;;;5014535;28;20192;-82
2020/12/28 01:36:32;;;;;;;1.00;0.90;;;4.20;99.90;;;;;;5013878;28;20709;-80
2020/12/28 01:38:57;;;;;;;1.27;1.17;;;4.30;99.90;;;;;;5016036;28;20656;-79
2020/12/28 01:41:23;;;;;;;2.27;1.20;;;4.30;99.90;;;;;;5002120;28;20195;-81
2020/12/28 01:43:48;;;;;;;1.33;1.10;;;4.30;99.90;;;;;;5001859;28;20187;-81
2020/12/28 01:46:14;;;;;;;1.10;1.00;;;4.30;99.90;;;;;;5018053;28;20664;-80
2020/12/28 01:48:39;;;;;;;1.93;1.10;;;4.20;99.90;;;;;;5018414;28;20184;-82
2020/12/28 01:51:05;;;;;;;1.43;0.90;;;4.20;99.90;;;;;;5015411;28;20230;-81
2020/12/28 01:53:30;;;;;;;1.23;1.07;;;4.20;99.90;;;;;;5000862;28;20177;-80
2020/12/28 01:56:01;;;;;;;1.00;1.00;;;4.20;99.90;;;;;;5000424;28;20186;-80
2020/12/28 01:58:28;;;;;;;1.27;1.07;;;4.30;99.90;;;;;;5000773;28;20233;-81
2020/12/28 02:00:53;;;;;;;1.10;1.00;;;4.30;99.90;;;;;;5016114;28;20656;-79
2020/12/28 02:03:20;;;;;;;0.93;0.90;;;4.20;99.90;;;;;;5017098;28;20200;-80
2020/12/28 02:05:45;;;;;;;1.10;1.00;;;4.30;99.90;;;;;;4999299;28;20180;-79
2020/12/28 02:08:11;;;;;;;1.00;0.90;;;4.20;99.90;;;;;;5017769;28;20651;-79
2020/12/28 02:10:36;;;;;;;1.10;1.00;;;4.20;99.90;;;;;;5018220;28;20911;-81
2020/12/28 02:13:02;;;;;;;1.20;1.00;;;4.40;99.90;;;;;;5017695;28;20646;-81
2020/12/28 02:15:27;;;;;;;1.23;1.10;;;4.30;99.90;;;;;;5000789;28;20203;-79
2020/12/28 02:17:53;;;;;;;1.27;1.00;;;4.30;99.90;;;;;;5016847;28;20278;-81
2020/12/28 02:20:18;;;;;;;1.90;1.57;;;4.30;99.90;;;;;;5018211;28;20211;-80
2020/12/28 02:22:44;;;;;;;1.00;1.00;;;4.20;99.90;;;;;;5017731;28;20187;-80
2020/12/28 02:25:10;;;;;;;2.47;1.50;;;4.20;99.90;;;;;;5017338;28;20643;-79
2020/12/28 02:27:36;;;;;;;1.47;1.20;;;4.20;99.90;;;;;;5016692;28;20231;-81
2020/12/28 02:30:02;;;;;;;1.73;1.17;;;4.20;99.90;;;;;;5015174;28;20207;-80
2020/12/28 02:32:28;;;;;;;1.60;1.23;;;4.20;99.90;;;;;;5014682;28;20176;-79
2020/12/28 02:34:53;;;;;;;1.77;1.20;;;4.30;99.90;;;;;;5014498;28;20660;-79
2020/12/28 02:37:19;;;;;;;1.00;0.90;;;4.30;99.90;;;;;;5015957;28;20610;-80
2020/12/28 02:39:44;;;;;;;1.10;1.00;;;4.30;99.90;;;;;;4999018;28;20626;-81
2020/12/28 02:42:10;;;;;;;1.87;1.10;;;4.30;99.90;;;;;;5015200;28;20186;-79
2020/12/28 02:44:35;;;;;;;2.40;1.13;;;4.30;99.90;;;;;;5016037;28;20584;-79
2020/12/28 02:47:01;;;;;;;1.57;1.10;;;4.30;99.90;;;;;;4999059;28;20536;-80
2020/12/28 02:49:26;;;;;;;1.20;1.07;;;4.30;99.90;;;;;;5015476;28;20188;-80
2020/12/28 02:51:52;;;;;;;1.73;1.10;;;4.30;99.90;;;;;;5015674;28;20258;-80
2020/12/28 02:54:17;;;;;;;1.17;1.07;;;4.30;99.90;;;;;;5015498;28;20758;-80
2020/12/28 02:56:43;;;;;;;1.77;1.10;;;4.20;99.90;;;;;;5015683;28;20759;-80
2020/12/28 02:59:08;;;;;;;1.00;0.90;;;4.30;99.90;;;;;;5000247;28;20183;-79
2020/12/28 03:01:37;;;;;;;1.07;0.97;;;4.20;99.90;;;;;;5001424;28;20256;-79
2020/12/28 03:04:05;;;;;;;1.60;1.10;;;4.30;99.90;;;;;;5001454;28;20212;-80
2020/12/28 03:06:30;;;;;;;2.37;1.17;;;4.20;99.90;;;;;;5018082;28;20207;-80
2020/12/28 03:08:56;;;;;;;0.87;0.80;;;4.30;99.90;;;;;;5018024;28;20246;-79
2020/12/28 03:11:22;;;;;;;1.37;1.27;;;4.20;99.90;;;;;;5001649;28;20674;-80
2020/12/28 03:13:47;;;;;;;1.10;1.00;;;4.20;99.90;;;;;;5018426;28;20179;-79
2020/12/28 03:16:13;;;;;;;1.40;1.20;;;4.30;99.90;;;;;;5001598;28;20312;-78
2020/12/28 03:18:38;;;;;;;1.20;0.93;;;4.20;99.90;;;;;;5018242;28;20179;-79
2020/12/28 03:21:04;;;;;;;1.57;1.30;;;4.20;99.90;;;;;;5018249;28;20247;-80
2020/12/28 03:23:29;;;;;;;1.20;1.10;;;4.20;99.90;;;;;;5018335;28;20172;-80
2020/12/28 03:25:55;;;;;;;1.27;1.10;;;4.30;99.90;;;;;;5017330;28;20212;-79
2020/12/28 03:28:20;;;;;;;1.23;0.90;;;4.30;99.90;;;;;;5016730;28;20176;-79
2020/12/28 03:30:48;;;;;;;1.80;1.20;;;4.40;99.90;;;;;;4998563;28;20208;-81
2020/12/28 03:33:14;;;;;;;1.10;1.00;;;4.30;99.90;;;;;;5015055;28;20183;-78
2020/12/28 03:35:40;;;;;;;1.30;1.20;;;4.30;99.90;;;;;;5000499;28;20177;-79
2020/12/28 03:38:06;;;;;;;1.57;1.30;;;4.40;99.90;;;;;;4999559;28;20199;-79
2020/12/28 03:40:31;;;;;;;1.47;1.07;;;4.30;99.90;;;;;;5018305;28;20215;-80
2020/12/28 03:42:57;;;;;;;1.20;1.10;;;4.30;99.90;;;;;;5017701;28;20240;-80
2020/12/28 03:45:22;;;;;;;2.27;1.30;;;4.30;99.90;;;;;;5019343;28;20177;-79
2020/12/28 03:47:48;;;;;;;2.97;1.50;;;4.30;99.90;;;;;;5017002;28;20203;-80
2020/12/28 03:50:14;;;;;;;1.27;1.17;;;4.30;99.90;;;;;;5000668;28;20239;-80
2020/12/28 03:52:39;;;;;;;3.03;1.30;;;4.30;99.90;;;;;;5017395;28;20186;-80
2020/12/28 03:55:08;;;;;;;2.50;1.27;;;4.30;99.90;;;;;;5001289;28;20180;-81
2020/12/28 03:57:34;;;;;;;1.30;1.20;;;4.30;99.90;;;;;;5000911;28;20219;-80
2020/12/28 03:59:59;;;;;;;1.80;1.40;;;4.30;99.90;;;;;;5016972;28;20184;-79
2020/12/28 04:02:25;;;;;;;2.20;1.67;;;4.20;99.90;;;;;;4999658;28;20180;-80
2020/12/28 04:04:50;;;;;;;1.73;1.50;;;4.20;99.90;;;;;;5016549;28;20180;-79
2020/12/28 04:07:16;;;;;;;1.50;1.40;;;4.20;99.90;;;;;;5016305;28;20307;-81
2020/12/28 04:09:42;;;;;;;1.63;1.40;;;4.20;99.90;;;;;;5017354;28;20182;-79
2020/12/28 04:12:07;;;;;;;1.77;1.60;;;4.30;99.90;;;;;;5002505;28;20207;-80
2020/12/28 04:14:33;;;;;;;2.07;1.60;;;4.20;99.90;;;;;;5003678;28;20642;-81
2020/12/28 04:16:58;;;;;;;1.70;1.60;;;4.20;99.90;;;;;;5021137;28;20195;-79
2020/12/28 04:19:24;;;;;;;2.00;1.73;;;4.20;99.90;;;;;;5005255;28;20176;-81
2020/12/28 04:21:49;;;;;;;2.97;1.70;;;4.20;99.90;;;;;;5021173;28;20183;-80
2020/12/28 04:24:17;;;;;;;4.23;1.90;;;4.20;99.90;;;;;;5022062;28;20182;-80
2020/12/28 04:26:43;;;;;;;1.70;1.60;;;4.30;99.90;;;;;;5021410;28;20217;-79
2020/12/28 04:29:13;;;;;;;2.20;2.00;;;4.30;99.90;;;;;;5005868;28;20219;-81
2020/12/28 04:31:39;;;;;;;2.20;1.90;;;4.30;99.90;;;;;;5007639;28;20273;-82
2020/12/28 04:34:05;;;;;;;3.57;2.07;;;4.40;99.90;;;;;;5007029;28;20199;-79
2020/12/28 04:36:30;;;;;;;2.73;2.07;;;4.40;99.90;;;;;;5023240;28;20732;-81
2020/12/28 04:38:56;;;;;;;1.70;1.60;;;4.30;99.90;;;;;;5005865;28;20176;-81
2020/12/28 04:41:21;;;;;;;2.20;1.80;;;4.30;99.90;;;;;;5005077;28;20209;-79
2020/12/28 04:43:47;;;;;;;2.20;1.87;;;4.20;99.90;;;;;;5004622;28;20606;-79
2020/12/28 04:46:13;;;;;;;1.97;1.63;;;4.30;99.90;;;;;;4998217;28;20559;-81
2020/12/28 04:48:39;;;;;;;2.07;1.90;;;4.30;99.90;;;;;;4998752;28;20223;-81
2020/12/28 04:51:04;;;;;;;2.20;2.00;;;4.20;99.90;;;;;;4998145;28;20862;-80
2020/12/28 04:53:30;;;;;;;2.10;1.90;;;4.20;99.90;;;;;;5013719;28;20226;-80
2020/12/28 04:55:59;;;;;;;2.00;1.80;;;4.20;99.90;;;;;;5013438;28;20234;-80
2020/12/28 04:58:24;;;;;;;2.40;2.10;;;4.20;99.90;;;;;;4996997;28;20671;-80
2020/12/28 05:01:00;;;;;;;2.53;2.00;;;4.30;99.90;;;;;;5014091;28;20191;-82
2020/12/28 05:03:26;;;;;;;2.20;2.00;;;4.40;99.90;;;;;;4997998;28;20183;-80
2020/12/28 05:05:51;;;;;;;2.33;2.13;;;4.40;99.90;;;;;;5013833;28;20191;-79
2020/12/28 05:08:18;;;;;;;2.53;2.33;;;4.30;99.90;;;;;;5013336;28;20195;-80
2020/12/28 05:10:43;;;;;;;3.13;2.83;;;4.30;99.90;;;;;;5014046;28;20199;-78
2020/12/28 05:13:09;;;;;;;2.90;2.70;;;4.30;99.90;;;;;;5016672;28;20214;-79
2020/12/28 05:15:48;;;;;;;3.00;2.80;;;4.30;99.90;;;;;;5019138;28;20175;-81
2020/12/28 05:18:15;;;;;;;3.63;2.83;;;4.30;99.90;;;;;;5002333;28;20681;-80
2020/12/28 05:20:45;;;;;;;3.13;2.83;;;4.30;99.90;;;;;;4998154;28;20606;-79
2020/12/28 05:23:11;;;;;;;2.73;2.53;;;4.40;99.90;;;;;;5014229;28;20209;-82
2020/12/28 05:25:37;;;;;;;3.20;2.90;;;4.30;99.90;;;;;;5014621;28;20227;-79
2020/12/28 05:28:03;;;;;;;3.07;2.77;;;4.40;99.90;;;;;;5013052;28;20200;-79
2020/12/28 05:30:31;;;;;;;3.03;2.73;;;4.40;99.90;;;;;;5014978;28;20207;-79
2020/12/28 05:33:01;;;;;;;3.40;3.10;;;4.40;99.90;;;;;;5014501;28;20666;-79
2020/12/28 05:35:27;;;;;;;3.50;3.20;;;4.40;99.90;;;;;;5015768;28;20576;-81
2020/12/28 05:37:53;;;;;;;3.80;3.23;;;4.40;99.90;;;;;;4998612;28;20201;-81
2020/12/28 05:40:18;;;;;;;3.50;3.20;;;4.30;99.90;;;;;;5014836;28;20184;-81
2020/12/28 05:42:50;;;;;;;4.00;3.07;;;4.30;99.90;;;;;;5018058;28;20183;-80
2020/12/28 05:45:16;;;;;;;3.70;3.23;;;4.30;99.90;;;;;;5002182;28;20199;-82
2020/12/28 05:47:42;;;;;;;4.40;3.30;;;4.30;99.90;;;;;;5001086;28;20204;-79
2020/12/28 05:50:09;;;;;;;3.50;3.20;;;4.20;99.90;;;;;;5001460;28;20240;-80
2020/12/28 05:52:36;;;;;;;3.63;3.33;;;4.20;99.90;;;;;;5002121;28;20250;-81
2020/12/28 05:55:02;;;;;;;4.90;3.43;;;4.20;99.90;;;;;;5018561;28;20187;-81
2020/12/28 05:57:28;;;;;;;3.80;3.27;;;4.20;99.90;;;;;;5001307;28;20302;-80
2020/12/28 05:59:53;;;;;;;4.80;3.63;;;4.20;99.90;;;;;;5003757;28;20199;-80
2020/12/28 06:02:19;;;;;;;3.40;3.10;;;4.20;99.90;;;;;;5003463;28;20192;-81
2020/12/28 06:04:45;;;;;;;4.33;3.20;;;4.30;99.90;;;;;;5019852;28;20636;-79
2020/12/28 06:07:10;;;;;;;4.00;3.40;;;4.30;99.90;;;;;;5001107;28;20208;-80
2020/12/28 06:09:36;;;;;;;4.10;3.70;;;4.30;99.90;;;;;;5000653;28;20266;-79
2020/12/28 06:12:08;;;;;;;4.10;3.70;;;4.30;99.90;;;;;;5015848;28;20203;-78
2020/12/28 06:14:34;;;;;;;5.13;4.23;;;4.30;99.90;;;;;;4999665;28;20184;-81
2020/12/28 06:17:07;;;;;;;4.40;4.00;;;4.40;99.90;;;;;;4999211;28;20192;-81
2020/12/28 06:19:33;;;;;;;4.00;3.60;;;4.30;99.90;;;;;;5016509;28;20183;-79
2020/12/28 06:21:59;;;;;;;4.67;4.10;;;4.30;99.90;;;;;;4999785;28;20230;-81
2020/12/28 06:24:31;;;;;;;4.30;3.90;;;4.30;99.90;;;;;;5015333;28;20176;-80
2020/12/28 06:27:04;;;;;;;4.57;4.17;;;4.30;99.90;;;;;;4999202;28;20698;-81
2020/12/28 06:29:30;;;;;;;4.57;4.17;;;4.30;99.90;;;;;;5015903;28;20168;-81
2020/12/28 06:31:55;;;;;;;4.60;4.20;;;4.20;99.90;;;;;;5016256;28;20176;-80
2020/12/28 06:34:21;;;;;;;4.80;4.30;;;4.20;99.90;;;;;;5001119;28;20248;-80
2020/12/28 06:36:47;;;;;;;5.43;4.93;;;4.20;99.90;;;;;;5000064;28;20679;-78
2020/12/28 06:39:13;;;;;;;6.33;5.23;;;4.20;99.90;;;;;;5015751;28;20259;-81
2020/12/28 06:41:38;;;;;;;7.33;5.90;;;4.10;99.90;;;;;;4999523;28;20199;-81
2020/12/28 06:44:04;;;;;;;8.63;6.30;;;4.10;99.90;;;;;;5000306;28;20188;-80
2020/12/28 06:46:30;;;;;;;6.60;5.90;;;4.00;99.90;;;;;;4999769;28;20200;-79
2020/12/28 06:48:56;;;;;;;8.50;6.67;;;3.90;99.90;;;;;;5000387;28;20211;-79
2020/12/28 06:51:22;;;;;;;7.20;6.27;;;3.90;99.90;;;;;;4999715;28;20207;-81
2020/12/28 06:53:51;;;;;;;7.83;6.10;;;4.00;99.90;;;;;;5016053;28;20274;-80
2020/12/28 06:56:17;;;;;;;7.70;6.27;;;4.00;99.90;;;;;;5014947;28;20196;-80
2020/12/28 06:58:42;;;;;;;7.67;6.17;;;4.00;99.90;;;;;;5022543;23;20309;-80
2020/12/28 07:01:08;;;;;;;8.00;6.47;;;4.00;99.90;;;;;;4984978;28;20215;-78
2020/12/28 07:03:33;;;;;;;5.70;5.10;;;4.10;99.90;;;;;;5000865;28;20183;-82
2020/12/28 07:06:05;;;;;;;6.43;5.50;;;4.10;99.90;;;;;;5003479;28;20230;-82
2020/12/28 07:08:37;;;;;;;6.20;5.60;;;4.20;99.90;;;;;;4988477;28;20294;-81
2020/12/28 07:11:03;;;;;;;6.07;5.57;;;4.20;99.90;;;;;;4991017;28;20701;-80
2020/12/28 07:13:30;;;;;;;5.80;5.20;;;4.20;99.90;;;;;;4989496;28;20246;-79
2020/12/28 07:16:05;;;;;;;5.93;5.43;;;4.20;99.90;;;;;;5007507;28;20168;-81
2020/12/28 07:18:30;;;;;;;6.27;5.67;;;4.10;99.90;;;;;;5024428;28;20393;-82
2020/12/28 07:20:57;;;;;;;6.17;5.57;;;4.10;99.90;;;;;;4991535;28;20193;-81
2020/12/28 07:23:24;;;;;;;8.70;5.93;;;4.20;99.90;;;;;;5025543;28;20176;-81
2020/12/28 07:26:02;;;;;;;6.57;5.60;;;4.10;99.90;;;;;;5022675;28;20406;-79
2020/12/28 07:28:28;;;;;;;6.30;5.70;;;4.10;99.90;;;;;;5021139;28;20199;-81
2020/12/28 07:31:00;;;;;;;6.30;5.67;;;4.10;99.90;;;;;;4988882;28;20224;-81
2020/12/28 07:33:26;;;;;;;7.63;5.80;;;4.10;99.90;;;;;;4991059;28;20231;-83
2020/12/28 07:36:10;;;;;;;6.00;5.33;;;4.10;99.90;;;;;;4992452;28;20271;-81
2020/12/28 07:38:36;;;;;;;8.57;6.07;;;4.10;99.90;;;;;;4988024;28;20200;-83
2020/12/28 07:41:01;;;;;;;6.90;6.10;;;4.10;99.90;;;;;;5002510;28;20175;-81
2020/12/28 07:43:28;;;;;;;7.00;5.83;;;4.20;99.90;;;;;;5022008;28;20250;-81
2020/12/28 07:46:02;;;;;;;7.90;5.70;;;4.20;99.90;;;;;;4989704;28;20210;-80
2020/12/28 07:48:28;;;;;;;7.70;6.00;;;4.30;99.90;;;;;;4988147;28;20203;-81
2020/12/28 07:50:53;;;;;;;6.40;5.50;;;4.20;99.90;;;;;;4987016;28;20227;-80
2020/12/28 07:53:25;;;;;;;6.07;5.47;;;4.30;99.90;;;;;;5003849;28;20183;-81
2020/12/28 07:56:04;;;;;;;6.20;5.60;;;4.30;99.90;;;;;;5019274;28;20175;-82
2020/12/28 07:58:30;;;;;;;6.57;5.80;;;4.30;99.90;;;;;;5003298;28;20216;-80
2020/12/28 08:00:56;;;;;;;5.97;5.37;;;4.30;99.90;;;;;;5015871;28;20173;-78
2020/12/28 08:03:31;;;;;;;5.47;4.97;;;4.20;99.90;;;;;;4996855;28;20716;-79
2020/12/28 08:06:04;;;;;;;6.87;6.00;;;4.20;99.90;;;;;;5012736;28;20163;-79
2020/12/28 08:08:30;;;;;;;6.97;5.57;;;4.10;99.90;;;;;;4999389;28;20248;-81
2020/12/28 08:10:57;;;;;;;5.93;5.30;;;4.10;99.90;;;;;;4981278;28;20207;-83
2020/12/28 08:13:25;;;;;;;6.63;5.17;;;4.10;99.90;;;;;;4981952;28;20184;-83
2020/12/28 08:15:50;;;;;;;5.83;5.07;;;4.00;99.90;;;;;;4996604;28;20168;-84
2020/12/28 08:18:16;;;;;;;6.23;5.17;;;3.90;99.90;;;;;;4979873;28;20246;-84
2020/12/28 08:20:41;;;;;;;5.90;5.40;;;3.90;99.90;;;;;;4995575;28;20186;-83
2020/12/28 08:23:07;;;;;;;6.10;5.50;;;3.80;99.90;;;;;;5014460;28;20199;-81
2020/12/28 08:25:33;;;;;;;5.90;5.30;;;3.80;99.90;;;;;;5015089;28;20711;-83
2020/12/28 08:28:00;;;;;;;5.67;5.07;;;3.90;99.90;;;;;;4982563;28;20207;-84
2020/12/28 08:30:27;;;;;;;6.87;4.93;;;3.80;99.90;;;;;;4982337;28;20207;-81
2020/12/28 08:32:53;;;;;;;6.20;5.23;;;3.80;99.90;;;;;;4984437;28;20557;-82
2020/12/28 08:35:19;;;;;;;5.70;5.03;;;3.80;99.90;;;;;;5015964;28;20262;-80
2020/12/28 08:37:48;;;;;;;6.87;5.53;;;3.80;99.90;;;;;;4998440;28;20209;-80
2020/12/28 08:40:15;;;;;;;6.20;5.60;;;3.90;99.90;;;;;;4999032;28;20176;-79
2020/12/28 08:42:41;;;;;;;7.70;5.60;;;3.90;99.90;;;;;;4998627;28;20203;-80
2020/12/28 08:45:06;;;;;;;6.20;5.43;;;4.00;99.90;;;;;;4999131;28;20689;-80
2020/12/28 08:47:32;;;;;;;7.77;5.70;;;4.10;99.90;;;;;;4998781;28;20192;-79
2020/12/28 08:49:58;;;;;;;6.13;5.30;;;4.20;99.90;;;;;;5015887;28;20205;-80
2020/12/28 08:52:23;;;;;;;7.20;6.00;;;4.10;99.90;;;;;;4998812;28;20175;-81
2020/12/28 08:54:59;;;;;;;7.60;6.03;;;4.20;99.90;;;;;;4982326;28;20214;-81
2020/12/28 08:57:25;;;;;;;7.43;5.80;;;4.40;99.90;;;;;;4978503;28;20222;-82
2020/12/28 08:59:51;;;;;;;6.07;5.47;;;4.40;99.90;;;;;;4995327;28;20234;-83
2020/12/28 09:02:18;;;;;;;6.43;5.13;;;4.40;99.90;;;;;;4978787;28;20233;-84
2020/12/28 09:04:44;;;;;;;5.77;5.17;;;4.50;99.90;;;;;;4993669;28;20176;-82
2020/12/28 09:07:10;;;;;;;7.07;5.53;;;4.60;99.90;;;;;;4993977;28;20253;-83
2020/12/28 09:09:37;;;;;;;7.13;5.50;;;4.60;99.90;;;;;;4994886;28;20257;-83
2020/12/28 09:12:03;;;;;;;6.77;5.30;;;4.70;99.90;;;;;;4993818;28;20189;-84
2020/12/28 09:14:29;;;;;;;6.63;4.70;;;4.70;99.90;;;;;;4997733;28;20182;-84
2020/12/28 09:16:54;;;;;;;4.60;4.20;;;4.70;99.90;;;;;;5013709;28;20207;-86
2020/12/28 09:19:20;;;;;;;4.70;4.30;;;4.70;99.90;;;;;;5016838;28;20213;-86
2020/12/28 09:21:45;;;;;;;4.57;4.13;;;4.80;99.90;;;;;;5015337;28;20184;-85
2020/12/28 09:24:11;;;;;;;4.80;4.10;;;4.60;99.90;;;;;;5017765;28;20183;-81
2020/12/28 09:26:36;;;;;;;5.07;4.10;;;4.60;99.90;;;;;;5017793;28;20254;-82
2020/12/28 09:29:02;;;;;;;4.30;3.90;;;4.60;99.90;;;;;;4999359;28;20616;-84
2020/12/28 09:31:28;;;;;;;4.10;3.70;;;4.60;99.90;;;;;;5015904;28;20234;-85
2020/12/28 09:33:53;;;;;;;6.13;3.70;;;4.60;99.90;;;;;;5015244;28;20246;-87
2020/12/28 09:36:22;;;;;;;6.07;3.33;;;4.60;99.90;;;;;;5014778;28;20243;-87
2020/12/28 09:38:48;;;;;;;4.50;3.80;;;4.60;99.90;;;;;;5007616;28;20300;-84
2020/12/28 09:41:14;;;;;;;5.13;3.70;;;4.60;99.90;;;;;;4993545;28;20597;-87
2020/12/28 09:43:40;;;;;;;7.00;4.20;;;4.60;99.90;;;;;;4993401;28;20207;-84
2020/12/28 09:46:06;;;;;;;3.90;3.50;;;4.60;99.90;;;;;;4993263;28;20204;-86
2020/12/28 09:48:31;;;;;;;7.33;3.60;;;4.70;99.90;;;;;;4977339;28;20694;-85
2020/12/28 09:50:57;;;;;;;4.60;3.20;;;4.80;99.90;;;;;;4976831;28;20273;-84
2020/12/28 09:53:23;;;;;;;4.77;3.60;;;4.70;99.90;;;;;;4993848;28;20180;-84
2020/12/28 09:55:48;;;;;;;5.97;3.73;;;4.80;99.90;;;;;;4992879;28;20267;-86
2020/12/28 09:58:14;;;;;;;3.90;3.50;;;4.90;99.90;;;;;;4975677;28;20335;-86
2020/12/28 10:00:39;;;;;;;3.97;3.57;;;4.90;99.90;;;;;;4995203;28;20212;-84
2020/12/28 10:03:05;;;;;;;5.33;3.60;;;4.80;99.90;;;;;;4981124;28;20180;-87
2020/12/28 10:05:30;;;;;;;3.93;3.33;;;4.80;99.90;;;;;;4996709;28;20668;-86
2020/12/28 10:07:56;;;;;;;4.90;3.40;;;4.90;99.90;;;;;;4999277;28;20861;-81
2020/12/28 10:10:22;;;;;;;4.37;3.40;;;5.10;99.90;;;;;;5000527;28;20196;-82
2020/12/28 10:12:47;;;;;;;3.40;3.10;;;5.10;99.90;;;;;;4983073;28;20255;-78
2020/12/28 10:15:13;;;;;;;4.27;2.80;;;5.20;99.90;;;;;;4979649;28;20206;-82
2020/12/28 10:17:38;;;;;;;2.67;2.47;;;5.30;99.90;;;;;;5009912;28;20207;-85
2020/12/28 10:20:04;;;;;;;3.47;2.57;;;5.40;99.90;;;;;;5000163;28;20566;-84
2020/12/28 10:22:30;;;;;;;2.60;2.40;;;5.50;99.90;;;;;;5000956;28;20183;-89
2020/12/28 10:24:55;;;;;;;3.60;2.70;;;5.50;99.90;;;;;;4999538;28;20187;-83
2020/12/28 10:27:21;;;;;;;2.93;2.50;;;5.50;99.90;;;;;;5014227;28;20217;-76
2020/12/28 10:29:46;;;;;;;2.80;2.43;;;5.50;99.90;;;;;;5016132;28;20264;-82
2020/12/28 10:32:12;;;;;;;3.13;2.60;;;5.50;99.90;;;;;;5015158;28;20196;-80
2020/12/28 10:34:38;;;;;;;2.53;2.30;;;5.50;99.90;;;;;;5015634;28;20634;-88
2020/12/28 10:37:03;;;;;;;3.27;2.97;;;5.40;99.90;;;;;;4998147;28;20223;-85
2020/12/28 10:39:29;;;;;;;3.17;2.60;;;5.40;99.90;;;;;;4995359;28;20183;-85
2020/12/28 10:41:54;;;;;;;3.67;2.80;;;5.40;99.90;;;;;;4982965;28;20206;-91
2020/12/28 10:44:21;;;;;;;3.13;2.40;;;5.40;99.90;;;;;;4998397;28;20534;-91
2020/12/28 10:46:47;;;;;;;2.90;2.33;;;5.40;99.90;;;;;;4994623;28;20683;-89
2020/12/28 10:49:12;;;;;;;3.07;2.43;;;5.60;99.90;;;;;;4994871;28;20214;-87
2020/12/28 10:51:38;;;;;;;2.87;1.87;;;5.60;99.90;;;;;;4996909;28;20249;-86
2020/12/28 10:54:03;;;;;;;2.37;2.17;;;5.60;99.90;;;;;;5013487;28;20171;-86
2020/12/28 10:56:29;;;;;;;3.97;2.30;;;5.60;99.90;;;;;;4997213;28;20172;-85
2020/12/28 10:58:58;;;;;;;2.40;2.00;;;5.70;99.90;;;;;;4997227;28;20219;-87
2020/12/28 11:01:27;;;;;;;3.80;2.10;;;5.70;99.90;;;;;;5013312;28;20183;-85
2020/12/28 11:03:53;;;;;;;2.03;1.80;;;5.80;99.90;;;;;;4997161;28;20187;-86
2020/12/28 11:06:19;;;;;;;2.80;1.53;;;5.80;99.90;;;;;;5013481;28;20185;-89
2020/12/28 11:08:45;;;;;;;3.37;1.53;;;5.80;99.90;;;;;;5013265;28;20204;-89
2020/12/28 11:11:10;;;;;;;2.63;1.23;;;5.80;99.90;;;;;;4962804;28;20204;-89
2020/12/28 11:13:36;;;;;;;2.47;1.67;;;5.80;99.90;;;;;;4977368;28;20196;-85
2020/12/28 11:16:01;;;;;;;1.63;1.43;;;5.80;99.90;;;;;;4961124;28;20183;-87
2020/12/28 11:18:27;;;;;;;1.83;1.33;;;5.70;99.90;;;;;;4962939;28;20278;-85
2020/12/28 11:20:52;;;;;;;1.40;1.20;;;5.70;99.90;;;;;;4973821;28;20184;-85
2020/12/28 11:23:18;;;;;;;2.43;1.07;;;5.70;99.90;;;;;;5013886;28;20179;-81
2020/12/28 11:25:44;;;;;;;3.47;1.40;;;5.70;99.90;;;;;;4992960;28;20184;-83
2020/12/28 11:28:10;;;;;;;0.90;0.70;;;5.70;99.90;;;;;;5005046;28;20203;-81
2020/12/28 11:30:35;;;;;;;1.93;1.00;;;5.80;99.90;;;;;;5009384;28;20670;-81
2020/12/28 11:33:01;;;;;;;2.10;1.03;;;5.80;99.90;;;;;;5006603;28;20267;-85
2020/12/28 11:35:26;;;;;;;2.00;0.97;;;5.70;99.90;;;;;;4996425;28;20179;-85
2020/12/28 11:37:52;;;;;;;2.73;1.00;;;5.70;99.90;;;;;;4996250;28;20261;-84
2020/12/28 11:40:18;;;;;;;2.70;1.03;;;5.60;99.90;;;;;;4996000;28;20222;-83
2020/12/28 11:42:43;;;;;;;2.20;1.10;;;5.60;99.90;;;;;;5009661;28;20190;-85
2020/12/28 11:45:09;;;;;;;1.63;0.80;;;5.50;99.90;;;;;;4998206;28;20210;-85
2020/12/28 11:47:38;;;;;;;1.90;1.20;;;5.40;99.90;;;;;;5014346;28;20734;-83
2020/12/28 11:50:04;;;;;;;2.70;1.10;;;5.30;99.90;;;;;;5007992;28;20576;-83
2020/12/28 11:52:30;;;;;;;1.50;1.00;;;5.40;99.90;;;;;;4981358;28;20659;-85
2020/12/28 11:54:55;;;;;;;1.30;1.03;;;5.50;99.90;;;;;;5014294;28;20186;-85
2020/12/28 11:57:21;;;;;;;1.70;1.00;;;5.50;99.90;;;;;;5006868;28;20196;-85
2020/12/28 11:59:46;;;;;;;1.20;0.90;;;5.60;99.90;;;;;;4981210;28;20189;-85
2020/12/28 12:02:12;;;;;;;1.63;1.03;;;5.70;99.90;;;;;;5013864;28;20179;-86
2020/12/28 12:04:50;;;;;;;4.57;1.30;;;5.70;99.90;;;;;;5012385;28;20277;-85
2020/12/28 12:07:20;;;;;;;2.10;1.33;;;5.70;99.90;;;;;;5013790;28;20197;-83
2020/12/28 12:09:45;;;;;;;0.90;0.80;;;5.70;99.90;;;;;;5012434;28;20229;-84
2020/12/28 12:12:12;;;;;;;2.57;1.13;;;5.60;99.90;;;;;;5013000;28;20183;-84
2020/12/28 12:14:37;;;;;;;3.13;0.80;;;5.60;99.90;;;;;;5014400;28;20183;-82
2020/12/28 12:17:03;;;;;;;1.77;1.00;;;5.60;99.90;;;;;;4996914;28;20175;-84
2020/12/28 12:19:28;;;;;;;4.17;1.00;;;5.70;99.90;;;;;;4980941;28;20182;-81
2020/12/28 12:21:54;;;;;;;1.70;0.90;;;5.60;99.90;;;;;;4996976;28;20189;-85
2020/12/28 12:24:19;;;;;;;1.57;1.00;;;5.60;99.90;;;;;;5013810;28;20277;-85
2020/12/28 12:26:45;;;;;;;6.17;1.27;;;5.60;99.90;;;;;;5009673;28;20273;-83
2020/12/28 12:29:10;;;;;;;2.23;0.97;;;5.60;99.90;;;;;;4980588;28;20222;-84
2020/12/28 12:31:36;;;;;;;1.37;0.87;;;5.60;99.90;;;;;;5006026;28;20200;-82
2020/12/28 12:34:01;;;;;;;1.23;0.90;;;5.70;99.90;;;;;;4999070;28;20182;-84
2020/12/28 12:36:27;;;;;;;1.27;0.90;;;5.70;99.90;;;;;;4996250;28;20184;-84
2020/12/28 12:38:53;;;;;;;2.53;0.90;;;5.70;99.90;;;;;;4964946;28;20227;-84
2020/12/28 12:41:19;;;;;;;2.50;0.90;;;5.70;99.90;;;;;;4978114;28;20187;-84
2020/12/28 12:43:45;;;;;;;1.40;1.20;;;5.70;99.90;;;;;;4961769;28;20191;-84
2020/12/28 12:46:12;;;;;;;2.73;1.13;;;5.80;99.90;;;;;;4966956;28;20188;-87
2020/12/28 12:48:39;;;;;;;1.50;1.10;;;5.80;99.90;;;;;;5007123;28;20204;-86
2020/12/28 12:51:05;;;;;;;2.60;1.10;;;5.80;99.90;;;;;;5013550;28;20221;-86
2020/12/28 12:53:30;;;;;;;1.53;0.97;;;5.80;99.90;;;;;;5005716;28;20636;-86